White Sands National Monumen, New Mexico
Current Conditions -  °F | °C
As of 4:58 AM on Monday 26 Jan 2015 (Local Time) from KHMN Reporting Station
Clear Clear  
Wind Chill: 22°   Ceiling: Unl
Heat Index: 28°   Visibility: 10mi
Dew Point: 24°   Wind: 5mph
Humidity: 87%   Direction: 280°W
Pressure: 30.31"   Gusts: NA
Location:  32.7929°N, 106.161°W
Report Text: KHMN 261158Z AUTO 28004KT 10SM CLR M02/M04 A3031 RMK AO2 SLP252 T10241043 10011 21026 50000 $
Loading
Personal Weather Stations






























Interactive Weather Map New forecast layout! Learn more

10-Day Weather Forecast

Advertisements
Track Severe Weather on mobile